Time;durP1;ratioP1;P1;durP2;ratioP2;P2;SDS_P1;SDS_P2;PMS_P1;PMS_P2;Temp;Humidity;BMP_temperature;BMP_pressure;BME280_temperature;BME280_humidity;BME280_pressure;Samples;Min_cycle;Max_cycle;Signal;HPM_P1;HPM_P2
2022/04/11 00:01:29;;;;;;;12.57;7.20;;;;;7.10;101285.00;;;;10538468;28;20245;-78
2022/04/11 00:06:33;;;;;;;13.73;7.57;;;;;7.00;101283.00;;;;10556460;28;20203;-79
2022/04/11 00:11:35;;;;;;;12.53;7.30;;;;;6.90;101282.00;;;;10539450;28;20196;-78
2022/04/11 00:16:36;;;;;;;10.17;8.03;;;;;6.80;101277.00;;;;10555948;28;20188;-78
2022/04/11 00:21:38;;;;;;;10.73;7.97;;;;;6.70;101263.00;;;;10556217;28;20195;-78
2022/04/11 00:26:41;;;;;;;9.40;7.73;;;;;6.60;101268.00;;;;10575084;28;20201;-77
2022/04/11 00:31:43;;;;;;;12.07;7.90;;;;;6.50;101263.00;;;;10480993;28;20220;-77
2022/04/11 00:36:45;;;;;;;13.70;7.50;;;;;6.50;101256.00;;;;10513328;28;20196;-77
2022/04/11 00:41:47;;;;;;;10.50;7.70;;;;;6.50;101258.00;;;;10479201;28;20204;-78
2022/04/11 00:46:49;;;;;;;12.37;8.00;;;;;6.40;101257.00;;;;10479428;28;20224;-78
2022/04/11 00:51:51;;;;;;;9.50;7.60;;;;;6.40;101255.00;;;;10518125;27;20200;-78
2022/04/11 00:56:55;;;;;;;11.87;7.97;;;;;6.30;101249.00;;;;10580186;27;20223;-77
2022/04/11 01:01:57;;;;;;;12.27;7.77;;;;;6.20;101249.00;;;;10595905;27;20192;-78
2022/04/11 01:06:59;;;;;;;11.03;7.83;;;;;6.10;101239.00;;;;10595645;27;20204;-78
2022/04/11 01:12:03;;;;;;;11.10;7.77;;;;;6.00;101227.00;;;;10562819;27;20662;-77
2022/04/11 01:17:05;;;;;;;15.47;8.00;;;;;5.90;101233.00;;;;10561813;27;20594;-78
2022/04/11 01:22:07;;;;;;;10.23;7.83;;;;;5.90;101220.00;;;;10582271;27;20342;-77
2022/04/11 01:27:09;;;;;;;10.00;7.50;;;;;5.70;101225.00;;;;10552558;28;20207;-78
2022/04/11 01:32:11;;;;;;;12.33;8.20;;;;;5.60;101219.00;;;;10569923;28;20203;-77
2022/04/11 01:37:13;;;;;;;10.90;7.40;;;;;5.50;101220.00;;;;10568207;28;20245;-77
2022/04/11 01:42:15;;;;;;;10.80;7.70;;;;;5.30;101228.00;;;;10510645;28;20196;-78
2022/04/11 01:47:17;;;;;;;9.23;7.53;;;;;5.20;101222.00;;;;10511051;28;20221;-78
2022/04/11 01:52:19;;;;;;;16.67;7.93;;;;;5.10;101214.00;;;;10550888;27;20274;-78
2022/04/11 01:57:21;;;;;;;10.13;7.50;;;;;5.00;101232.00;;;;10561310;27;20187;-78
2022/04/11 02:02:23;;;;;;;11.03;7.77;;;;;4.90;101227.00;;;;10577808;27;20195;-77
2022/04/11 02:07:25;;;;;;;10.27;7.87;;;;;4.90;101220.00;;;;10588880;27;20208;-77
2022/04/11 02:12:28;;;;;;;10.17;7.73;;;;;4.80;101214.00;;;;10535098;28;20291;-78
2022/04/11 02:17:30;;;;;;;13.23;7.93;;;;;4.70;101222.00;;;;10567706;28;20419;-78
2022/04/11 02:22:49;;;;;;;9.10;7.80;;;;;4.50;101223.00;;;;10516591;28;20204;-78
2022/04/11 02:27:54;;;;;;;11.13;8.30;;;;;4.40;101219.00;;;;10525561;28;20181;-78
2022/04/11 02:32:56;;;;;;;12.63;7.37;;;;;4.20;101222.00;;;;10524511;28;20235;-77
2022/04/11 02:37:59;;;;;;;10.73;7.30;;;;;4.10;101224.00;;;;10524530;28;20205;-77
2022/04/11 02:43:01;;;;;;;9.90;8.07;;;;;4.00;101219.00;;;;10491504;28;20303;-78
2022/04/11 02:48:05;;;;;;;11.30;7.63;;;;;4.00;101220.00;;;;10497822;28;20207;-77
2022/04/11 02:53:11;;;;;;;11.33;7.70;;;;;3.90;101218.00;;;;10546333;27;20647;-78
2022/04/11 02:58:15;;;;;;;11.93;7.87;;;;;3.80;101222.00;;;;10549286;28;20632;-78
2022/04/11 03:03:17;;;;;;;13.90;8.23;;;;;3.70;101215.00;;;;10548962;28;20218;-78
2022/04/11 03:08:21;;;;;;;10.53;8.50;;;;;3.60;101213.00;;;;10515584;28;20209;-77
2022/04/11 03:13:22;;;;;;;10.47;7.33;;;;;3.60;101214.00;;;;10548377;28;20214;-78
2022/04/11 03:18:24;;;;;;;11.83;7.67;;;;;3.70;101205.00;;;;10510409;28;20257;-76
2022/04/11 03:23:27;;;;;;;9.07;6.83;;;;;3.70;101204.00;;;;10514653;28;20261;-78
2022/04/11 03:28:31;;;;;;;10.20;7.37;;;;;3.80;101196.00;;;;10515226;28;20223;-78
2022/04/11 03:33:34;;;;;;;10.53;6.90;;;;;3.80;101198.00;;;;10548353;28;20180;-77
2022/04/11 03:38:37;;;;;;;10.17;6.90;;;;;3.70;101196.00;;;;10564049;28;20212;-78
2022/04/11 03:43:43;;;;;;;12.00;7.37;;;;;3.60;101198.00;;;;10547199;28;20212;-78
2022/04/11 03:48:45;;;;;;;10.13;6.77;;;;;3.60;101195.00;;;;10564922;28;20214;-78
2022/04/11 03:53:50;;;;;;;11.67;7.10;;;;;3.60;101193.00;;;;10559626;28;20666;-77
2022/04/11 03:58:52;;;;;;;11.13;7.97;;;;;3.50;101186.00;;;;10547172;28;20250;-78
2022/04/11 04:03:54;;;;;;;10.10;7.20;;;;;3.50;101186.00;;;;10530203;28;20208;-78
2022/04/11 04:08:57;;;;;;;13.13;7.33;;;;;3.40;101186.00;;;;10546027;28;20196;-78
2022/04/11 04:14:10;;;;;;;11.77;6.90;;;;;3.40;101179.00;;;;10529639;28;20280;-78
2022/04/11 04:19:17;;;;;;;11.63;6.57;;;;;3.40;101188.00;;;;10529422;28;20189;-78
2022/04/11 04:24:22;;;;;;;8.93;7.00;;;;;3.60;101185.00;;;;10570493;28;20200;-78
2022/04/11 04:29:29;;;;;;;9.43;6.50;;;;;3.60;101178.00;;;;10529853;28;20200;-77
2022/04/11 04:34:31;;;;;;;8.53;6.57;;;;;3.60;101172.00;;;;10545468;28;20199;-77
2022/04/11 04:39:35;;;;;;;10.07;6.60;;;;;3.50;101183.00;;;;10529237;28;20211;-78
2022/04/11 04:44:40;;;;;;;12.23;5.70;;;;;3.40;101171.00;;;;10551678;28;20269;-78
2022/04/11 04:49:48;;;;;;;9.47;5.93;;;;;3.40;101173.00;;;;10553134;28;20241;-78
2022/04/11 04:54:51;;;;;;;12.03;5.53;;;;;3.30;101168.00;;;;10550386;28;20195;-78
2022/04/11 04:59:55;;;;;;;11.50;5.70;;;;;3.30;101165.00;;;;10536418;28;20214;-77
2022/04/11 05:05:08;;;;;;;9.67;5.80;;;;;3.50;101176.00;;;;10535671;28;20211;-77
2022/04/11 05:10:10;;;;;;;9.27;5.10;;;;;3.90;101164.00;;;;10569056;28;20192;-78
2022/04/11 05:15:14;;;;;;;7.00;4.57;;;;;4.10;101162.00;;;;10536245;28;20203;-77
2022/04/11 05:20:20;;;;;;;6.90;5.07;;;;;4.20;101164.00;;;;10553350;28;20192;-77
2022/04/11 05:25:23;;;;;;;8.17;4.90;;;;;4.40;101162.00;;;;10576976;27;20235;-78
2022/04/11 05:30:26;;;;;;;9.03;5.33;;;;;4.70;101173.00;;;;10576827;27;20192;-78
2022/04/11 05:35:30;;;;;;;5.17;4.43;;;;;5.00;101163.00;;;;10549991;28;20195;-78
2022/04/11 05:40:37;;;;;;;10.70;5.33;;;;;5.70;101158.00;;;;10535217;28;20200;-78
2022/04/11 05:45:47;;;;;;;8.43;3.53;;;;;6.30;101149.00;;;;10536613;28;20220;-78
2022/04/11 05:50:49;;;;;;;8.27;3.53;;;;;6.40;101164.00;;;;10570238;27;20192;-78
2022/04/11 05:55:51;;;;;;;6.93;3.57;;;;;6.40;101160.00;;;;10593124;27;20274;-78
2022/04/11 06:00:53;;;;;;;7.07;3.83;;;;;6.50;101159.00;;;;10593825;27;20222;-78
2022/04/11 06:05:56;;;;;;;8.07;3.73;;;;;6.60;101173.00;;;;10592730;27;20223;-78
2022/04/11 06:10:58;;;;;;;8.70;3.70;;;;;6.90;101167.00;;;;10576174;27;20216;-78
2022/04/11 06:16:04;;;;;;;4.90;3.50;;;;;7.20;101172.00;;;;10508264;28;20254;-78
2022/04/11 06:21:06;;;;;;;5.33;3.53;;;;;7.40;101180.00;;;;10535324;27;20286;-77
2022/04/11 06:26:09;;;;;;;6.63;3.73;;;;;7.80;101167.00;;;;10593204;27;20203;-77
2022/04/11 06:31:15;;;;;;;6.90;3.40;;;;;8.30;101182.00;;;;10558127;27;20571;-78
2022/04/11 06:36:23;;;;;;;6.53;3.70;;;;;8.80;101157.00;;;;10525987;28;20188;-78
2022/04/11 06:41:25;;;;;;;5.30;3.67;;;;;9.10;101150.00;;;;10547785;28;20214;-78
2022/04/11 06:46:28;;;;;;;5.60;3.27;;;;;9.40;101145.00;;;;10531033;28;20215;-78
2022/04/11 06:51:30;;;;;;;5.67;3.23;;;;;10.00;101144.00;;;;10527267;28;20223;-78
2022/04/11 06:56:32;;;;;;;7.50;3.70;;;;;10.30;101144.00;;;;10547952;28;20201;-78
2022/04/11 07:01:36;;;;;;;3.70;2.83;;;;;10.10;101146.00;;;;10552425;28;20194;-79
2022/04/11 07:06:38;;;;;;;6.20;3.00;;;;;10.80;101143.00;;;;10544699;28;20204;-79
2022/04/11 07:11:40;;;;;;;5.63;3.13;;;;;11.00;101153.00;;;;10563895;28;20210;-78
2022/04/11 07:16:42;;;;;;;5.80;3.07;;;;;11.10;101152.00;;;;10541860;27;20196;-79
2022/04/11 07:21:46;;;;;;;4.07;2.83;;;;;11.10;101142.00;;;;10566031;28;20196;-78
2022/04/11 07:26:47;;;;;;;4.73;3.00;;;;;11.60;101142.00;;;;10548566;28;20200;-78
2022/04/11 07:31:49;;;;;;;3.73;2.40;;;;;12.10;101121.00;;;;10548708;28;20714;-78
2022/04/11 07:36:51;;;;;;;3.70;2.10;;;;;12.10;101118.00;;;;10514875;28;20828;-77
2022/04/11 07:41:53;;;;;;;6.13;2.67;;;;;12.70;101103.00;;;;10490042;28;20203;-77
2022/04/11 07:46:55;;;;;;;6.30;2.73;;;;;13.00;101110.00;;;;10527279;28;20238;-78
2022/04/11 07:51:57;;;;;;;4.97;2.50;;;;;13.30;101111.00;;;;10540130;28;20207;-75
2022/04/11 07:56:59;;;;;;;4.57;2.37;;;;;13.40;101099.00;;;;10523118;28;20196;-77
2022/04/11 08:02:01;;;;;;;6.10;2.93;;;;;13.40;101104.00;;;;10547077;28;20210;-78
2022/04/11 08:07:03;;;;;;;3.03;2.53;;;;;13.90;101101.00;;;;10547154;28;20444;-77
2022/04/11 08:12:06;;;;;;;6.17;2.93;;;;;14.20;101110.00;;;;10582852;28;20204;-78
2022/04/11 08:17:08;;;;;;;5.97;2.80;;;;;14.20;101101.00;;;;10588996;27;20194;-79
2022/04/11 08:22:10;;;;;;;5.93;2.60;;;;;14.40;101103.00;;;;10525140;28;20207;-79
2022/04/11 08:27:12;;;;;;;2.93;2.33;;;;;14.70;101106.00;;;;10513296;28;20213;-78
2022/04/11 08:32:14;;;;;;;3.30;2.23;;;;;15.20;101090.00;;;;10517297;28;20922;-79
2022/04/11 08:37:15;;;;;;;3.87;2.37;;;;;15.60;101093.00;;;;10530570;28;20208;-78
2022/04/11 08:42:17;;;;;;;7.77;2.53;;;;;15.80;101069.00;;;;10555991;28;20231;-78
2022/04/11 08:47:19;;;;;;;4.83;2.83;;;;;15.90;101062.00;;;;10536968;28;20224;-77
2022/04/11 08:52:21;;;;;;;4.13;2.50;;;;;16.30;101064.00;;;;10546568;28;20200;-79
2022/04/11 08:57:23;;;;;;;4.95;2.25;;;;;16.70;101060.00;;;;10509370;28;20193;-78
2022/04/11 09:02:33;;;;;;;4.38;2.63;;;;;16.80;101053.00;;;;10552018;27;20191;-78
2022/04/11 09:07:51;;;;;;;8.20;2.60;;;;;17.10;101046.00;;;;10547408;28;20269;-78
2022/04/11 09:12:59;;;;;;;3.80;2.00;;;;;17.40;101043.00;;;;10567249;28;20271;-78
2022/04/11 09:18:01;;;;;;;4.45;2.17;;;;;17.50;101033.00;;;;10523531;28;20279;-78
2022/04/11 09:23:17;;;;;;;3.55;2.00;;;;;17.20;101031.00;;;;10532306;27;20204;-79
2022/04/11 09:28:20;;;;;;;3.25;2.45;;;;;17.10;101025.00;;;;10586015;27;20203;-78
2022/04/11 09:33:22;;;;;;;6.63;2.67;;;;;17.20;101023.00;;;;10541355;28;20184;-78
2022/04/11 09:38:25;;;;;;;3.78;2.50;;;;;17.80;101024.00;;;;10550451;28;20251;-79
2022/04/11 09:43:28;;;;;;;4.75;2.17;;;;;18.10;101022.00;;;;10533397;28;20188;-79
2022/04/11 09:48:32;;;;;;;3.40;2.30;;;;;18.40;101012.00;;;;10524828;27;20302;-79
2022/04/11 09:53:35;;;;;;;6.07;2.40;;;;;18.20;100999.00;;;;10527972;28;20200;-79
2022/04/11 09:58:41;;;;;;;4.72;2.78;;;;;18.30;100992.00;;;;10568442;28;20188;-78
2022/04/11 10:03:45;;;;;;;9.13;6.43;;;;;18.50;100985.00;;;;10528970;28;20282;-79
2022/04/11 10:08:48;;;;;;;6.03;2.72;;;;;19.00;100982.00;;;;10543923;28;20598;-79
2022/04/11 10:13:50;;;;;;;2.30;1.77;;;;;19.00;100981.00;;;;10525735;28;20188;-79
2022/04/11 10:19:00;;;;;;;2.80;2.08;;;;;19.10;100977.00;;;;10573013;27;20195;-77
2022/04/11 10:24:05;;;;;;;2.83;2.28;;;;;19.10;100963.00;;;;10578891;28;20198;-79
2022/04/11 10:29:38;;;;;;;4.53;2.35;;;;;18.90;100955.00;;;;10533041;27;20176;-77
2022/04/11 10:35:09;;;;;;;4.00;2.13;;;;;19.10;100951.00;;;;10507896;28;20193;-79
2022/04/11 10:40:17;;;;;;;4.70;2.35;;;;;19.20;100947.00;;;;10514675;28;20246;-79
2022/04/11 10:45:29;;;;;;;3.90;2.15;;;;;19.30;100941.00;;;;10549037;28;20216;-77
2022/04/11 10:50:42;;;;;;;4.07;1.83;;;;;19.30;100923.00;;;;10513402;28;20232;-78
2022/04/11 10:56:05;;;;;;;4.57;3.17;;;;;19.80;100920.00;;;;10560034;27;20192;-76
2022/04/11 11:01:08;;;;;;;4.63;2.80;;;;;20.10;100917.00;;;;10539537;28;20196;-79
2022/04/11 11:06:22;;;;;;;3.58;2.83;;;;;20.30;100902.00;;;;10537855;28;20219;-78
2022/04/11 11:11:27;;;;;;;5.43;2.55;;;;;20.10;100906.00;;;;10587590;27;20192;-78
2022/04/11 11:16:35;;;;;;;3.15;2.50;;;;;19.60;100894.00;;;;10549387;27;20187;-77
2022/04/11 11:21:59;;;;;;;4.70;2.45;;;;;19.80;100898.00;;;;10546645;27;20194;-76
2022/04/11 11:27:04;;;;;;;4.00;2.50;;;;;20.10;100888.00;;;;10579821;27;20195;-77
2022/04/11 11:32:08;;;;;;;4.60;3.30;;;;;20.50;100886.00;;;;10557884;28;20192;-77
2022/04/11 11:37:13;;;;;;;5.53;2.75;;;;;20.40;100872.00;;;;10542025;28;20208;-76
2022/04/11 11:42:17;;;;;;;2.85;2.50;;;;;20.40;100861.00;;;;10542256;28;20222;-77
2022/04/11 11:47:27;;;;;;;3.60;2.53;;;;;20.60;100859.00;;;;10542486;28;20219;-76
2022/04/11 11:52:29;;;;;;;5.90;2.38;;;;;20.80;100856.00;;;;10517820;27;20218;-77
2022/04/11 11:57:32;;;;;;;4.32;3.05;;;;;21.00;100850.00;;;;10595864;27;20208;-76
2022/04/11 12:08:01;;;;;;;6.57;3.05;;;;;21.90;100837.00;;;;10604369;27;20502;-76
2022/04/11 12:13:03;;;;;;;6.05;3.10;;;;;21.90;100826.00;;;;10498241;28;20204;-76
2022/04/11 12:18:07;;;;;;;3.78;2.50;;;;;22.10;100837.00;;;;10532165;28;20245;-77
2022/04/11 12:23:11;;;;;;;5.43;2.72;;;;;22.20;100824.00;;;;10575607;27;20199;-76
2022/04/11 12:28:23;;;;;;;4.28;2.58;;;;;21.80;100828.00;;;;10581956;27;20238;-77
2022/04/11 12:33:33;;;;;;;3.45;2.58;;;;;22.00;100809.00;;;;10570958;28;20196;-77
2022/04/11 12:38:47;;;;;;;2.75;2.20;;;;;22.20;100794.00;;;;10573024;28;20208;-77
2022/04/11 12:44:20;;;;;;;4.63;2.45;;;;;22.30;100783.00;;;;10554101;28;20282;-76
2022/04/11 12:49:23;;;;;;;3.42;1.80;;;;;22.30;100769.00;;;;10563706;28;20204;-77
2022/04/11 12:54:44;;;;;;;5.15;2.03;;;;;22.20;100753.00;;;;10540503;28;20200;-77
2022/04/11 12:59:46;;;;;;;3.80;2.08;;;;;21.80;100740.00;;;;10552180;28;20206;-77
2022/04/11 13:04:54;;;;;;;5.00;2.50;;;;;21.80;100744.00;;;;10550317;28;20258;-77
2022/04/11 13:10:18;;;;;;;2.80;2.13;;;;;21.90;100739.00;;;;10532524;28;20208;-77
2022/04/11 13:15:20;;;;;;;4.60;2.30;;;;;22.30;100749.00;;;;10507317;28;20263;-77
2022/04/11 13:20:23;;;;;;;4.05;2.88;;;;;22.50;100747.00;;;;10538158;27;20253;-76
2022/04/11 13:25:25;;;;;;;2.55;1.70;;;;;23.00;100734.00;;;;10579698;27;20240;-77
2022/04/11 13:30:47;;;;;;;3.63;2.17;;;;;23.50;100745.00;;;;10573029;27;20184;-77
2022/04/11 13:35:50;;;;;;;3.08;2.05;;;;;24.10;100726.00;;;;10528998;28;20243;-77
2022/04/11 13:40:52;;;;;;;2.53;1.80;;;;;24.60;100715.00;;;;10558364;28;20212;-77
2022/04/11 13:45:54;;;;;;;4.18;1.90;;;;;25.10;100700.00;;;;10562307;27;20204;-77
2022/04/11 13:50:56;;;;;;;2.78;2.10;;;;;25.90;100677.00;;;;10559017;27;20765;-77
2022/04/11 13:55:57;;;;;;;2.67;2.05;;;;;28.50;100658.00;;;;10557927;27;20208;-77
2022/04/11 14:01:04;;;;;;;2.40;2.10;;;;;29.40;100671.00;;;;10562353;27;20536;-77
2022/04/11 14:06:06;;;;;;;1.90;1.50;;;;;28.60;100655.00;;;;10545460;28;20300;-77
2022/04/11 14:11:09;;;;;;;1.83;1.65;;;;;28.00;100639.00;;;;10543246;28;20698;-77
2022/04/11 14:16:10;;;;;;;2.58;1.98;;;;;28.10;100630.00;;;;10542142;28;20184;-77
2022/04/11 14:21:12;;;;;;;1.88;1.55;;;;;29.20;100617.00;;;;10550924;27;20192;-77
2022/04/11 14:26:15;;;;;;;3.72;1.70;;;;;29.50;100600.00;;;;10542188;28;20220;-77
2022/04/11 14:31:17;;;;;;;3.78;1.90;;;;;30.10;100589.00;;;;10525893;28;20279;-77
2022/04/11 14:36:19;;;;;;;2.00;1.73;;;;;29.80;100595.00;;;;10563879;28;20189;-76
2022/04/11 14:41:41;;;;;;;2.67;2.13;;;;;28.90;100575.00;;;;10532294;28;20192;-77
2022/04/11 14:46:43;;;;;;;4.47;1.65;;;;;28.00;100579.00;;;;10562553;28;20689;-77
2022/04/11 14:51:45;;;;;;;1.92;1.55;;;;;28.40;100564.00;;;;10544948;28;20203;-76
2022/04/11 14:56:46;;;;;;;2.78;1.70;;;;;28.60;100556.00;;;;10563308;28;20240;-77
2022/04/11 15:01:48;;;;;;;4.07;1.77;;;;;28.60;100551.00;;;;10546383;28;20193;-76
2022/04/11 15:06:50;;;;;;;2.40;1.67;;;;;27.40;100545.00;;;;10550836;27;20235;-78
2022/04/11 15:11:52;;;;;;;1.70;1.20;;;;;28.40;100552.00;;;;10577695;27;20189;-76
2022/04/11 15:16:54;;;;;;;3.50;1.38;;;;;27.70;100546.00;;;;10488094;28;20200;-77
2022/04/11 15:21:56;;;;;;;1.67;1.40;;;;;25.20;100550.00;;;;10528266;27;20203;-77
2022/04/11 15:26:58;;;;;;;2.25;1.30;;;;;26.30;100535.00;;;;10565750;27;20249;-77
2022/04/11 15:32:02;;;;;;;4.63;1.92;;;;;23.80;100531.00;;;;10545794;28;20202;-78
2022/04/11 15:37:04;;;;;;;2.85;1.65;;;;;22.70;100529.00;;;;10568192;27;20265;-77
2022/04/11 15:42:06;;;;;;;3.17;1.55;;;;;21.90;100533.00;;;;10606118;27;20282;-77
2022/04/11 15:47:09;;;;;;;2.63;1.70;;;;;21.90;100529.00;;;;10552982;27;20212;-77
2022/04/11 15:52:11;;;;;;;7.20;1.50;;;;;22.00;100515.00;;;;10562399;28;20188;-77
2022/04/11 15:57:13;;;;;;;3.92;1.58;;;;;22.40;100515.00;;;;10537064;28;20189;-76
2022/04/11 16:02:16;;;;;;;2.90;1.50;;;;;21.50;100530.00;;;;10502635;28;20199;-77
2022/04/11 16:07:18;;;;;;;3.28;1.58;;;;;20.90;100527.00;;;;10519722;28;20259;-77
2022/04/11 16:12:20;;;;;;;2.45;1.50;;;;;20.60;100520.00;;;;10519069;28;20242;-77
2022/04/11 16:17:22;;;;;;;4.43;1.40;;;;;20.10;100518.00;;;;10519702;28;20229;-77
2022/04/11 16:22:24;;;;;;;4.70;1.40;;;;;19.80;100514.00;;;;10517398;28;20212;-77
2022/04/11 16:27:26;;;;;;;3.78;1.20;;;;;19.60;100521.00;;;;10542847;28;20271;-77
2022/04/11 16:32:28;;;;;;;2.78;1.50;;;;;19.40;100510.00;;;;10542104;28;20188;-77
2022/04/11 16:37:30;;;;;;;2.50;1.30;;;;;19.20;100509.00;;;;10533111;28;20268;-77
2022/04/11 16:42:32;;;;;;;1.67;1.40;;;;;19.00;100507.00;;;;10530988;27;20197;-78
2022/04/11 16:47:34;;;;;;;2.60;1.20;;;;;18.80;100506.00;;;;10489735;28;20213;-77
2022/04/11 16:52:36;;;;;;;3.90;1.13;;;;;18.70;100497.00;;;;10542593;28;20198;-76
2022/04/11 16:57:38;;;;;;;3.25;1.35;;;;;18.60;100496.00;;;;10534356;28;20192;-77
2022/04/11 17:02:40;;;;;;;1.70;1.33;;;;;18.50;100491.00;;;;10534272;28;20193;-77
2022/04/11 17:07:43;;;;;;;5.35;1.38;;;;;18.30;100496.00;;;;10550605;28;20291;-77
2022/04/11 17:12:45;;;;;;;1.90;1.10;;;;;18.10;100507.00;;;;10534135;28;20188;-77
2022/04/11 17:23:07;;;;;;;1.83;1.27;;;;;17.70;100511.00;;;;10549780;28;20210;-77
2022/04/11 17:28:09;;;;;;;5.40;1.00;;;;;17.60;100508.00;;;;10532569;28;20204;-77
2022/04/11 17:33:11;;;;;;;2.15;1.10;;;;;17.40;100507.00;;;;10565455;28;20535;-77
2022/04/11 17:38:15;;;;;;;2.53;1.00;;;;;17.20;100510.00;;;;10554106;28;20238;-77
2022/04/11 17:43:18;;;;;;;1.45;1.02;;;;;17.00;100520.00;;;;10567332;28;20216;-77
2022/04/11 17:48:20;;;;;;;1.00;0.90;;;;;16.80;100525.00;;;;10546472;28;20708;-76
2022/04/11 17:53:22;;;;;;;1.83;1.08;;;;;16.70;100527.00;;;;10578190;27;20279;-77
2022/04/11 17:58:24;;;;;;;2.22;1.30;;;;;16.50;100528.00;;;;10548949;28;20210;-77
2022/04/11 18:03:26;;;;;;;1.15;1.05;;;;;16.30;100538.00;;;;10548234;28;20269;-77
2022/04/11 18:08:29;;;;;;;3.58;1.08;;;;;16.10;100536.00;;;;10514686;28;20418;-76
2022/04/11 18:13:31;;;;;;;1.98;1.20;;;;;15.80;100530.00;;;;10539898;28;20283;-77
2022/04/11 18:18:34;;;;;;;4.00;1.43;;;;;15.50;100527.00;;;;10505674;28;20189;-77
2022/04/11 18:23:36;;;;;;;1.67;1.17;;;;;15.10;100534.00;;;;10489511;28;20205;-77
2022/04/11 18:33:59;;;;;;;3.23;1.40;;;;;14.70;100526.00;;;;10521491;28;20200;-78
2022/04/11 18:39:02;;;;;;;2.30;1.50;;;;;14.70;100526.00;;;;10504112;28;20209;-77
2022/04/11 18:44:05;;;;;;;2.97;1.77;;;;;14.60;100515.00;;;;10504601;28;20200;-77
2022/04/11 18:49:07;;;;;;;5.33;1.83;;;;;14.30;100521.00;;;;10555724;28;20212;-77
2022/04/11 18:54:09;;;;;;;3.30;1.83;;;;;14.10;100521.00;;;;10525972;27;20196;-77
2022/04/11 18:59:11;;;;;;;6.73;2.37;;;;;13.90;100523.00;;;;10561939;28;20635;-77
2022/04/11 19:04:13;;;;;;;5.80;2.53;;;;;13.90;100521.00;;;;10561377;28;20246;-77
2022/04/11 19:09:15;;;;;;;5.37;2.93;;;;;13.70;100527.00;;;;10528895;28;20306;-77
2022/04/11 19:14:17;;;;;;;4.70;3.23;;;;;13.50;100530.00;;;;10544977;28;20196;-77
2022/04/11 19:19:19;;;;;;;4.43;3.50;;;;;13.30;100528.00;;;;10528162;28;20192;-77
2022/04/11 19:24:21;;;;;;;5.80;3.67;;;;;13.20;100541.00;;;;10612620;27;20200;-76
2022/04/11 19:29:23;;;;;;;7.57;4.17;;;;;12.90;100535.00;;;;10587720;27;20211;-77
2022/04/11 19:34:24;;;;;;;8.87;3.90;;;;;12.80;100535.00;;;;10572520;27;20199;-78
2022/04/11 19:39:26;;;;;;;6.27;3.03;;;;;12.80;100534.00;;;;10604502;27;20261;-77
2022/04/11 19:44:29;;;;;;;5.30;3.63;;;;;12.60;100529.00;;;;10587867;27;20203;-77
2022/04/11 19:54:53;;;;;;;4.57;3.20;;;;;12.20;100528.00;;;;10575815;28;20566;-77
2022/04/11 19:59:55;;;;;;;5.27;3.50;;;;;12.00;100521.00;;;;10545752;28;20196;-78
2022/04/11 20:04:57;;;;;;;5.60;3.33;;;;;11.70;100527.00;;;;10528970;28;20180;-77
2022/04/11 20:09:59;;;;;;;5.03;3.20;;;;;11.40;100530.00;;;;10528839;28;20220;-76
2022/04/11 20:15:01;;;;;;;6.40;3.80;;;;;11.20;100520.00;;;;10535370;28;20227;-77
2022/04/11 20:20:04;;;;;;;7.80;5.00;;;;;10.90;100526.00;;;;10553976;28;20196;-77
2022/04/11 20:25:08;;;;;;;6.80;3.83;;;;;10.80;100529.00;;;;10527863;28;20206;-77
2022/04/11 20:30:12;;;;;;;8.93;4.60;;;;;10.70;100513.00;;;;10512232;28;20222;-77
2022/04/11 20:35:15;;;;;;;7.70;4.80;;;;;10.70;100517.00;;;;10536322;28;20196;-77
2022/04/11 20:40:18;;;;;;;6.67;5.00;;;;;10.70;100504.00;;;;10552579;28;20635;-77
2022/04/11 20:45:24;;;;;;;7.47;4.83;;;;;10.70;100489.00;;;;10552451;28;20207;-77
2022/04/11 20:50:28;;;;;;;8.50;4.70;;;;;10.70;100495.00;;;;10535807;28;20223;-77
2022/04/11 20:55:39;;;;;;;6.30;3.90;;;;;10.70;100482.00;;;;10535264;28;20203;-76
2022/04/11 21:00:42;;;;;;;7.83;4.30;;;;;10.70;100478.00;;;;10521917;28;20201;-77
2022/04/11 21:05:47;;;;;;;7.80;4.90;;;;;10.60;100478.00;;;;10509747;28;20189;-77
2022/04/11 21:10:49;;;;;;;7.57;5.07;;;;;10.50;100479.00;;;;10492549;28;20193;-77
2022/04/11 21:15:51;;;;;;;10.73;5.03;;;;;10.50;100483.00;;;;10509767;28;20192;-77
2022/04/11 21:20:53;;;;;;;7.57;5.10;;;;;10.40;100476.00;;;;10532542;27;20252;-78
2022/04/11 21:25:55;;;;;;;6.50;4.27;;;;;10.50;100470.00;;;;10593460;27;20286;-78
2022/04/11 21:30:58;;;;;;;5.90;3.43;;;;;10.60;100462.00;;;;10576791;27;20191;-77
2022/04/11 21:36:00;;;;;;;4.90;3.80;;;;;10.90;100470.00;;;;10609808;27;20183;-77
2022/04/11 21:41:02;;;;;;;5.90;3.67;;;;;10.90;100464.00;;;;10593973;27;20219;-77
2022/04/11 21:46:03;;;;;;;7.80;3.57;;;;;10.90;100462.00;;;;10576292;27;20211;-78
2022/04/11 21:51:05;;;;;;;5.40;4.00;;;;;10.80;100472.00;;;;10541589;27;20191;-78
2022/04/11 21:56:08;;;;;;;6.90;3.57;;;;;10.70;100467.00;;;;10516686;28;20709;-78
2022/04/11 22:01:10;;;;;;;7.30;4.43;;;;;10.80;100469.00;;;;10478078;28;20200;-78
2022/04/11 22:06:13;;;;;;;7.70;4.10;;;;;10.80;100472.00;;;;10567654;28;20261;-78
2022/04/11 22:11:16;;;;;;;5.83;4.10;;;;;10.70;100473.00;;;;10549799;28;20241;-77
2022/04/11 22:16:18;;;;;;;6.90;4.10;;;;;10.60;100467.00;;;;10532723;28;20199;-78
2022/04/11 22:21:20;;;;;;;6.77;4.43;;;;;10.50;100463.00;;;;10555393;27;20234;-78
2022/04/11 22:26:22;;;;;;;5.20;3.80;;;;;10.60;100453.00;;;;10607991;27;20294;-78
2022/04/11 22:31:25;;;;;;;7.47;4.17;;;;;10.60;100449.00;;;;10590990;27;20245;-77
2022/04/11 22:36:27;;;;;;;4.20;3.33;;;;;10.80;100451.00;;;;10573801;27;20187;-77
2022/04/11 22:41:29;;;;;;;5.83;3.87;;;;;10.80;100456.00;;;;10573944;27;20243;-77
2022/04/11 22:46:31;;;;;;;6.60;3.93;;;;;10.80;100459.00;;;;10557115;27;20280;-78
2022/04/11 22:51:33;;;;;;;5.77;4.00;;;;;10.60;100466.00;;;;10517878;28;20241;-78
2022/04/11 22:56:35;;;;;;;5.57;3.97;;;;;10.40;100446.00;;;;10547602;28;20723;-78
2022/04/11 23:01:36;;;;;;;6.63;3.97;;;;;10.40;100445.00;;;;10505817;28;20201;-77
2022/04/11 23:06:39;;;;;;;4.77;3.90;;;;;10.30;100442.00;;;;10488879;28;20209;-77
2022/04/11 23:11:40;;;;;;;7.40;3.60;;;;;10.20;100436.00;;;;10472299;28;20204;-77
2022/04/11 23:16:43;;;;;;;4.57;3.43;;;;;10.20;100432.00;;;;10488637;28;20220;-78
2022/04/11 23:21:45;;;;;;;9.33;4.70;;;;;10.10;100421.00;;;;10525976;27;20268;-77
2022/04/11 23:26:46;;;;;;;5.43;3.83;;;;;9.90;100422.00;;;;10558163;28;20208;-77
2022/04/11 23:31:48;;;;;;;4.87;3.37;;;;;9.90;100436.00;;;;10531533;28;20239;-78
2022/04/11 23:36:50;;;;;;;4.90;3.63;;;;;9.80;100436.00;;;;10505108;28;20196;-78
2022/04/11 23:41:52;;;;;;;4.80;3.33;;;;;9.70;100437.00;;;;10504711;28;20196;-77
2022/04/11 23:46:55;;;;;;;4.20;3.37;;;;;9.50;100435.00;;;;10504353;28;20552;-78
2022/04/11 23:51:57;;;;;;;4.67;3.17;;;;;9.40;100426.00;;;;10499086;28;20658;-77
2022/04/11 23:56:59;;;;;;;3.90;3.50;;;;;9.30;100426.00;;;;10563682;28;20193;-77
